Time;durP1;ratioP1;P1;durP2;ratioP2;P2;SDS_P1;SDS_P2;PMS_P1;PMS_P2;Temp;Humidity;BMP_temperature;BMP_pressure;BME280_temperature;BME280_humidity;BME280_pressure;Samples;Min_cycle;Max_cycle;Signal;HPM_P1;HPM_P2
2022/08/28 00:00:24;;;;;;;2.45;2.10;;;26.20;55.50;;;;;;5060786;28;20028;-63
2022/08/28 00:02:50;;;;;;;2.42;1.92;;;26.20;55.50;;;;;;5060719;28;20407;-64
2022/08/28 00:05:18;;;;;;;2.63;1.92;;;26.20;55.50;;;;;;5061244;28;20029;-64
2022/08/28 00:07:43;;;;;;;2.83;1.95;;;26.20;55.60;;;;;;5061289;28;20032;-63
2022/08/28 00:10:11;;;;;;;2.40;1.92;;;26.20;55.50;;;;;;5060536;28;20032;-64
2022/08/28 00:12:38;;;;;;;2.33;1.90;;;26.20;55.60;;;;;;5061330;28;20051;-63
2022/08/28 00:15:08;;;;;;;2.85;2.00;;;26.20;55.50;;;;;;5060578;28;20025;-63
2022/08/28 00:17:34;;;;;;;2.70;1.85;;;26.20;55.60;;;;;;5059454;28;20472;-63
2022/08/28 00:19:59;;;;;;;2.58;2.00;;;26.20;55.50;;;;;;5062709;28;20082;-63
2022/08/28 00:22:25;;;;;;;2.38;1.98;;;26.20;55.50;;;;;;5060185;28;20074;-64
2022/08/28 00:24:51;;;;;;;2.50;2.00;;;26.20;55.50;;;;;;5060079;28;20531;-64
2022/08/28 00:30:01;;;;;;;2.63;2.03;;;26.20;55.50;;;;;;5060594;28;20028;-64
2022/08/28 00:32:27;;;;;;;2.40;2.03;;;26.20;55.50;;;;;;5060693;28;20033;-63
2022/08/28 00:34:52;;;;;;;2.90;2.10;;;26.20;55.50;;;;;;5060840;28;20099;-63
2022/08/28 00:37:18;;;;;;;2.60;1.90;;;26.20;55.50;;;;;;5060514;28;20104;-64
2022/08/28 00:39:44;;;;;;;2.80;1.95;;;26.20;55.50;;;;;;5060721;28;20025;-63
2022/08/28 00:42:10;;;;;;;2.42;1.70;;;26.20;55.50;;;;;;5061825;28;20082;-63
2022/08/28 00:44:35;;;;;;;2.20;1.70;;;26.20;55.50;;;;;;5060094;28;20021;-64
2022/08/28 00:47:01;;;;;;;2.70;1.85;;;26.20;55.50;;;;;;5061027;28;20032;-64
2022/08/28 00:49:34;;;;;;;2.20;1.80;;;26.20;55.50;;;;;;5060141;28;20063;-63
2022/08/28 00:52:04;;;;;;;2.20;1.92;;;26.20;55.50;;;;;;5059050;28;20091;-63
2022/08/28 00:54:32;;;;;;;2.30;1.70;;;26.20;55.50;;;;;;5059860;28;20031;-63
2022/08/28 00:57:01;;;;;;;2.40;2.03;;;26.20;55.50;;;;;;5059492;28;20082;-63
2022/08/28 00:59:27;;;;;;;3.30;2.13;;;26.20;56.00;;;;;;5060613;28;20506;-63
2022/08/28 01:01:55;;;;;;;2.55;2.00;;;26.20;55.50;;;;;;5060989;28;20043;-63
2022/08/28 01:04:23;;;;;;;2.60;2.00;;;26.20;55.50;;;;;;5060949;28;20027;-63
2022/08/28 01:06:52;;;;;;;2.45;1.92;;;26.20;55.50;;;;;;5060272;28;20029;-64
2022/08/28 01:09:19;;;;;;;2.50;1.90;;;26.20;55.50;;;;;;5043113;28;20032;-63
2022/08/28 01:11:47;;;;;;;2.40;1.92;;;26.10;55.40;;;;;;5059594;28;20056;-64
2022/08/28 01:14:17;;;;;;;2.58;1.90;;;26.10;55.40;;;;;;5060640;28;20044;-63
2022/08/28 01:16:43;;;;;;;2.28;1.98;;;26.20;55.50;;;;;;5060192;28;20025;-63
2022/08/28 01:19:16;;;;;;;2.55;1.75;;;26.20;55.40;;;;;;5060627;28;20029;-64
2022/08/28 01:22:08;;;;;;;2.40;1.90;;;26.10;55.40;;;;;;5061022;28;20017;-63
2022/08/28 01:24:36;;;;;;;2.83;1.83;;;26.10;55.40;;;;;;5057901;28;20032;-64
2022/08/28 01:27:02;;;;;;;2.15;1.70;;;26.10;55.40;;;;;;5058215;28;20687;-64
2022/08/28 01:29:29;;;;;;;2.60;1.90;;;26.10;55.40;;;;;;5059447;28;20120;-63
2022/08/28 01:31:55;;;;;;;2.20;1.90;;;26.10;55.90;;;;;;5060799;28;20040;-63
2022/08/28 01:34:21;;;;;;;2.38;1.63;;;26.10;55.40;;;;;;5061215;28;20029;-63
2022/08/28 01:36:47;;;;;;;1.90;1.70;;;26.10;55.40;;;;;;5064475;28;20040;-63
2022/08/28 01:39:21;;;;;;;2.53;1.90;;;26.10;55.30;;;;;;5064337;28;20025;-63
2022/08/28 01:41:50;;;;;;;2.53;1.90;;;26.10;55.30;;;;;;5063217;28;20031;-63
2022/08/28 01:44:18;;;;;;;2.30;1.70;;;26.10;55.30;;;;;;5064930;28;20353;-63
2022/08/28 01:46:44;;;;;;;2.28;1.88;;;26.10;55.30;;;;;;5064523;28;20021;-63
2022/08/28 01:49:10;;;;;;;2.80;1.90;;;26.10;55.40;;;;;;5064908;28;20169;-64
2022/08/28 01:51:37;;;;;;;2.60;1.80;;;26.10;55.40;;;;;;5062018;28;20233;-64
2022/08/28 01:54:03;;;;;;;2.20;1.70;;;26.10;55.30;;;;;;5065197;28;20108;-63
2022/08/28 01:56:29;;;;;;;2.10;1.75;;;26.10;55.30;;;;;;5064787;28;20115;-63
2022/08/28 01:58:54;;;;;;;2.75;1.80;;;26.10;55.30;;;;;;5064911;28;20024;-63
2022/08/28 02:01:21;;;;;;;2.30;1.80;;;26.10;55.40;;;;;;5061614;28;20037;-63
2022/08/28 02:03:47;;;;;;;2.28;1.83;;;26.10;55.30;;;;;;5064396;28;20476;-63
2022/08/28 02:06:14;;;;;;;2.40;1.70;;;26.10;55.30;;;;;;5062036;28;20024;-63
2022/08/28 02:08:40;;;;;;;2.10;1.70;;;26.10;55.80;;;;;;5064043;28;20039;-62
2022/08/28 02:11:07;;;;;;;1.92;1.65;;;26.10;55.30;;;;;;5062337;28;20033;-63
2022/08/28 02:13:35;;;;;;;2.40;1.80;;;26.10;55.30;;;;;;5063735;28;20084;-63
2022/08/28 02:16:00;;;;;;;2.45;1.85;;;26.10;55.30;;;;;;5062556;28;20028;-62
2022/08/28 02:18:26;;;;;;;2.15;1.60;;;26.10;55.80;;;;;;5064060;28;20472;-62
2022/08/28 02:20:52;;;;;;;2.20;1.80;;;26.10;55.30;;;;;;5063694;28;20464;-64
2022/08/28 02:23:18;;;;;;;2.63;1.83;;;26.10;55.30;;;;;;5062778;28;20028;-62
2022/08/28 02:25:43;;;;;;;2.00;1.45;;;26.10;55.30;;;;;;5062585;28;20040;-62
2022/08/28 02:28:09;;;;;;;2.90;1.60;;;26.10;55.30;;;;;;5061073;28;20029;-64
2022/08/28 02:30:36;;;;;;;2.40;1.80;;;26.10;55.30;;;;;;5060497;28;20036;-59
2022/08/28 02:33:02;;;;;;;1.95;1.70;;;26.10;55.30;;;;;;5058883;28;20040;-63
2022/08/28 02:35:27;;;;;;;2.20;1.70;;;26.10;55.30;;;;;;5063067;28;20383;-63
2022/08/28 02:37:53;;;;;;;1.83;1.42;;;26.10;55.30;;;;;;5062765;28;20028;-63
2022/08/28 02:40:21;;;;;;;2.00;1.63;;;26.10;55.30;;;;;;5062933;28;20025;-63
2022/08/28 02:42:47;;;;;;;1.87;1.50;;;26.10;55.30;;;;;;5061659;28;20017;-62
2022/08/28 02:45:13;;;;;;;2.67;1.70;;;26.10;55.30;;;;;;5062844;28;20032;-63
2022/08/28 02:47:41;;;;;;;2.40;1.85;;;26.10;55.30;;;;;;5062797;28;20441;-63
2022/08/28 02:50:08;;;;;;;1.80;1.60;;;26.10;55.30;;;;;;5061856;28;20388;-63
2022/08/28 02:52:34;;;;;;;2.00;1.52;;;26.00;55.20;;;;;;5060785;28;20041;-62
2022/08/28 02:55:00;;;;;;;2.10;1.58;;;26.00;55.20;;;;;;5062197;28;20479;-63
2022/08/28 02:57:26;;;;;;;1.83;1.60;;;26.00;55.20;;;;;;5062338;28;20040;-63
2022/08/28 02:59:52;;;;;;;1.85;1.40;;;26.00;55.20;;;;;;5060416;28;20017;-64
2022/08/28 03:02:18;;;;;;;2.13;1.60;;;26.00;55.20;;;;;;5061825;28;20504;-64
2022/08/28 03:04:43;;;;;;;2.70;1.80;;;26.10;55.20;;;;;;5062667;28;20096;-63
2022/08/28 03:07:12;;;;;;;2.55;1.60;;;26.00;55.20;;;;;;5062328;28;20070;-65
2022/08/28 03:09:40;;;;;;;2.40;1.70;;;26.00;55.20;;;;;;5062379;28;20033;-62
2022/08/28 03:12:06;;;;;;;2.10;1.60;;;26.00;55.20;;;;;;5062017;28;20115;-64
2022/08/28 03:14:32;;;;;;;1.90;1.60;;;26.00;55.20;;;;;;5062690;28;20396;-64
2022/08/28 03:16:58;;;;;;;1.70;1.42;;;26.00;55.20;;;;;;5061751;28;20178;-66
2022/08/28 03:19:24;;;;;;;1.95;1.58;;;26.00;55.20;;;;;;5060901;28;20025;-62
2022/08/28 03:21:49;;;;;;;1.75;1.60;;;26.00;55.20;;;;;;5062093;28;20040;-63
2022/08/28 03:24:15;;;;;;;1.73;1.40;;;26.00;55.20;;;;;;5062298;28;20033;-62
2022/08/28 03:26:41;;;;;;;2.40;1.75;;;26.00;55.20;;;;;;5061622;28;20057;-62
2022/08/28 03:29:06;;;;;;;2.40;1.63;;;26.00;55.10;;;;;;5061563;28;20066;-61
2022/08/28 03:31:34;;;;;;;1.80;1.60;;;26.00;55.10;;;;;;5060969;28;20171;-62
2022/08/28 03:34:00;;;;;;;2.20;1.60;;;26.00;55.10;;;;;;5062186;28;20190;-62
2022/08/28 03:36:27;;;;;;;1.83;1.50;;;26.00;55.10;;;;;;5061500;28;20047;-63
2022/08/28 03:38:55;;;;;;;2.22;1.55;;;26.00;55.10;;;;;;5061045;28;20127;-62
2022/08/28 03:41:23;;;;;;;2.33;1.80;;;26.00;55.10;;;;;;5061933;28;20040;-63
2022/08/28 03:43:49;;;;;;;2.35;1.60;;;26.00;55.10;;;;;;5060258;28;20033;-63
2022/08/28 03:46:18;;;;;;;2.45;1.60;;;26.00;55.10;;;;;;5059846;28;20021;-63
2022/08/28 03:48:44;;;;;;;2.20;1.77;;;26.00;55.10;;;;;;5062806;28;20036;-62
2022/08/28 03:51:13;;;;;;;2.20;1.60;;;26.00;55.10;;;;;;5060328;28;20032;-63
2022/08/28 03:53:39;;;;;;;;;;;26.00;55.10;;;;;;5062079;28;20064;-63
2022/08/28 03:56:11;;;;;;;1.85;1.50;;;26.00;55.10;;;;;;5059946;28;20017;-63
2022/08/28 03:58:38;;;;;;;1.70;1.40;;;26.00;55.10;;;;;;5059976;28;20025;-63
2022/08/28 04:01:03;;;;;;;2.00;1.60;;;26.00;55.10;;;;;;5061932;28;20127;-63
2022/08/28 04:03:29;;;;;;;1.85;1.60;;;26.00;55.10;;;;;;5061453;28;20120;-61
2022/08/28 04:05:55;;;;;;;2.05;1.60;;;26.00;55.10;;;;;;5061309;28;20365;-63
2022/08/28 04:08:21;;;;;;;2.00;1.50;;;26.00;55.10;;;;;;5060424;28;20075;-63
2022/08/28 04:10:48;;;;;;;2.00;1.60;;;26.00;55.10;;;;;;5060683;28;20040;-62
2022/08/28 04:13:16;;;;;;;2.30;1.70;;;26.00;55.10;;;;;;5061437;28;20048;-64
2022/08/28 04:15:41;;;;;;;1.80;1.48;;;26.00;55.10;;;;;;5060901;28;20032;-63
2022/08/28 04:18:08;;;;;;;2.40;1.73;;;26.00;55.20;;;;;;5060454;28;20098;-62
2022/08/28 04:20:34;;;;;;;1.90;1.60;;;26.00;55.10;;;;;;5061206;28;20028;-62
2022/08/28 04:23:02;;;;;;;1.80;1.50;;;25.90;55.00;;;;;;5061129;28;20047;-62
2022/08/28 04:25:28;;;;;;;1.70;1.40;;;25.90;55.10;;;;;;5060258;28;20024;-62
2022/08/28 04:27:54;;;;;;;2.20;1.70;;;26.00;55.10;;;;;;5060012;28;20040;-62
2022/08/28 04:30:20;;;;;;;2.17;1.77;;;26.00;55.10;;;;;;5061115;28;20524;-63
2022/08/28 04:32:46;;;;;;;2.00;1.58;;;26.00;55.10;;;;;;5060782;28;20037;-62
2022/08/28 04:35:12;;;;;;;2.15;1.52;;;25.90;55.00;;;;;;5060228;28;20399;-62
2022/08/28 04:37:39;;;;;;;2.08;1.60;;;25.90;55.00;;;;;;5061175;28;20032;-62
2022/08/28 04:40:08;;;;;;;2.20;1.45;;;26.00;55.10;;;;;;5059979;28;20070;-63
2022/08/28 04:42:34;;;;;;;1.85;1.67;;;25.90;55.10;;;;;;5059906;28;20469;-63
2022/08/28 04:45:00;;;;;;;2.30;1.70;;;25.90;55.00;;;;;;5060801;28;20032;-62
2022/08/28 04:47:27;;;;;;;2.17;1.60;;;26.00;55.10;;;;;;5061500;28;20423;-63
2022/08/28 04:49:53;;;;;;;2.03;1.60;;;25.90;55.10;;;;;;5059882;28;20407;-62
2022/08/28 04:52:19;;;;;;;1.90;1.60;;;25.90;55.00;;;;;;5061102;28;20051;-62
2022/08/28 04:54:44;;;;;;;1.80;1.40;;;25.90;55.00;;;;;;5061501;28;20507;-62
2022/08/28 04:57:10;;;;;;;1.80;1.45;;;25.90;55.00;;;;;;5060208;28;20039;-63
2022/08/28 04:59:35;;;;;;;1.95;1.55;;;25.90;55.00;;;;;;5059836;28;20452;-64
2022/08/28 05:02:02;;;;;;;1.90;1.60;;;25.90;55.00;;;;;;5059280;28;20064;-61
2022/08/28 05:04:27;;;;;;;1.90;1.65;;;25.90;55.00;;;;;;5061234;28;20056;-62
2022/08/28 05:06:53;;;;;;;1.95;1.48;;;25.90;55.00;;;;;;5060835;28;20541;-62
2022/08/28 05:09:19;;;;;;;2.25;1.60;;;25.90;55.00;;;;;;5061849;28;20056;-64
2022/08/28 05:11:47;;;;;;;1.67;1.40;;;25.90;55.00;;;;;;5064941;28;20476;-62
2022/08/28 05:14:13;;;;;;;1.95;1.70;;;25.90;55.00;;;;;;5064305;28;20056;-63
2022/08/28 05:16:45;;;;;;;1.90;1.50;;;25.90;55.00;;;;;;5063477;28;20028;-62
2022/08/28 05:19:11;;;;;;;1.85;1.50;;;25.90;55.00;;;;;;5063841;28;20036;-63
2022/08/28 05:21:37;;;;;;;1.88;1.55;;;25.90;55.00;;;;;;5064960;28;20025;-62
2022/08/28 05:24:04;;;;;;;1.88;1.50;;;25.90;55.00;;;;;;5063160;28;20021;-62
2022/08/28 05:26:29;;;;;;;1.88;1.60;;;25.90;55.00;;;;;;5065576;28;20473;-63
2022/08/28 05:28:56;;;;;;;1.73;1.50;;;25.90;55.00;;;;;;5064838;28;20086;-63
2022/08/28 05:31:24;;;;;;;1.77;1.48;;;25.90;55.00;;;;;;5054213;28;20163;-63
2022/08/28 05:33:51;;;;;;;1.75;1.50;;;25.90;55.00;;;;;;5064085;28;20118;-62
2022/08/28 05:36:18;;;;;;;1.80;1.40;;;25.90;55.00;;;;;;5062967;28;20481;-63
2022/08/28 05:38:44;;;;;;;2.42;1.67;;;25.90;55.00;;;;;;5063581;28;20493;-63
2022/08/28 05:41:10;;;;;;;1.92;1.55;;;25.90;55.00;;;;;;5063584;28;20167;-63
2022/08/28 05:43:36;;;;;;;1.60;1.40;;;25.90;55.50;;;;;;5065017;28;20483;-62
2022/08/28 05:46:09;;;;;;;1.90;1.40;;;25.90;55.00;;;;;;5063432;28;20089;-62
2022/08/28 05:48:35;;;;;;;2.05;1.60;;;25.90;55.00;;;;;;5062072;28;20059;-63
2022/08/28 05:51:06;;;;;;;1.80;1.42;;;25.90;55.00;;;;;;5063769;28;20508;-59
2022/08/28 05:53:34;;;;;;;2.20;1.70;;;25.90;55.00;;;;;;5063373;28;20064;-62
2022/08/28 05:56:03;;;;;;;1.67;1.33;;;25.90;55.00;;;;;;5061275;28;20484;-60
2022/08/28 05:58:30;;;;;;;1.98;1.70;;;25.90;55.00;;;;;;5061557;28;20108;-62
2022/08/28 06:01:22;;;;;;;1.88;1.55;;;25.90;55.00;;;;;;5064314;28;20477;-62
2022/08/28 06:03:53;;;;;;;1.85;1.50;;;25.90;55.00;;;;;;5058781;28;20401;-62
2022/08/28 06:06:20;;;;;;;1.50;1.40;;;25.90;55.00;;;;;;5062447;28;20527;-63
2022/08/28 06:08:46;;;;;;;1.92;1.55;;;25.90;55.00;;;;;;5063332;28;20563;-62
2022/08/28 06:11:12;;;;;;;2.05;1.60;;;25.80;54.90;;;;;;5061959;28;20064;-63
2022/08/28 06:13:37;;;;;;;1.90;1.50;;;25.80;54.90;;;;;;5063504;28;20086;-63
2022/08/28 06:16:04;;;;;;;1.80;1.50;;;25.90;55.00;;;;;;5063849;28;20029;-62
2022/08/28 06:18:30;;;;;;;2.17;1.50;;;25.90;55.00;;;;;;5062563;28;20021;-63
2022/08/28 06:21:00;;;;;;;1.70;1.45;;;25.80;55.00;;;;;;5061976;28;20487;-62
2022/08/28 06:23:26;;;;;;;1.60;1.40;;;25.80;55.00;;;;;;5063640;28;20438;-63
2022/08/28 06:25:51;;;;;;;1.80;1.45;;;25.80;55.00;;;;;;5063155;28;20036;-63
2022/08/28 06:28:22;;;;;;;2.20;1.60;;;25.80;54.90;;;;;;5063165;28;20036;-63
2022/08/28 06:30:50;;;;;;;1.80;1.52;;;25.80;54.90;;;;;;5062324;28;20108;-63
2022/08/28 06:33:16;;;;;;;1.60;1.38;;;25.80;54.90;;;;;;5064067;28;20027;-63
2022/08/28 06:35:48;;;;;;;1.88;1.50;;;25.80;54.90;;;;;;5078236;28;20039;-63
2022/08/28 06:38:15;;;;;;;2.00;1.60;;;25.80;54.90;;;;;;5062326;28;20025;-63
2022/08/28 06:40:44;;;;;;;2.00;1.60;;;25.80;54.90;;;;;;5063255;28;20025;-63
2022/08/28 06:43:11;;;;;;;1.77;1.48;;;25.80;54.90;;;;;;5061690;28;20075;-63
2022/08/28 06:45:41;;;;;;;2.05;1.40;;;25.80;54.90;;;;;;5062402;28;20549;-63
2022/08/28 06:48:15;;;;;;;1.70;1.40;;;25.80;54.90;;;;;;5061167;28;20381;-63
2022/08/28 06:50:42;;;;;;;1.80;1.50;;;25.80;54.90;;;;;;5060341;28;20055;-62
2022/08/28 06:53:10;;;;;;;1.70;1.50;;;25.80;54.90;;;;;;5063579;28;20024;-63
2022/08/28 06:55:36;;;;;;;1.88;1.40;;;25.80;54.90;;;;;;5062017;28;20135;-63
2022/08/28 06:58:04;;;;;;;1.77;1.48;;;25.80;54.90;;;;;;5061713;28;20431;-62
2022/08/28 07:00:30;;;;;;;1.40;1.30;;;25.80;55.00;;;;;;5061325;28;20032;-63
2022/08/28 07:02:56;;;;;;;1.88;1.50;;;25.80;55.00;;;;;;5063100;28;20047;-63
2022/08/28 07:05:22;;;;;;;1.73;1.40;;;25.80;54.90;;;;;;5061971;28;20504;-63
2022/08/28 07:07:48;;;;;;;1.88;1.60;;;25.80;54.90;;;;;;5062087;28;20023;-62
2022/08/28 07:10:14;;;;;;;1.95;1.40;;;25.80;54.90;;;;;;5062648;28;20378;-62
2022/08/28 07:12:39;;;;;;;1.80;1.50;;;25.80;54.90;;;;;;5060613;28;20108;-63
2022/08/28 07:15:06;;;;;;;1.90;1.50;;;25.80;54.90;;;;;;5062904;28;20032;-63
2022/08/28 07:17:32;;;;;;;1.90;1.60;;;25.80;54.90;;;;;;5060734;28;20032;-62
2022/08/28 07:19:57;;;;;;;2.60;1.65;;;25.80;55.00;;;;;;5062242;28;20025;-63
2022/08/28 07:22:25;;;;;;;2.03;1.63;;;25.80;54.90;;;;;;5060815;28;20021;-62
2022/08/28 07:24:52;;;;;;;1.92;1.58;;;25.80;54.90;;;;;;5062547;28;20107;-63
2022/08/28 07:27:18;;;;;;;1.98;1.50;;;25.80;54.90;;;;;;5061495;28;20032;-62
2022/08/28 07:29:44;;;;;;;1.80;1.40;;;25.80;54.90;;;;;;5061192;28;20068;-62
2022/08/28 07:32:09;;;;;;;2.13;1.65;;;25.80;54.90;;;;;;5060866;28;20111;-62
2022/08/28 07:34:38;;;;;;;1.80;1.50;;;25.80;54.90;;;;;;5061332;28;20025;-62
2022/08/28 07:37:05;;;;;;;1.88;1.40;;;25.80;54.90;;;;;;5061719;28;20473;-63
2022/08/28 07:39:31;;;;;;;1.92;1.52;;;25.80;54.90;;;;;;5060830;28;20025;-61
2022/08/28 07:41:56;;;;;;;1.65;1.40;;;25.80;54.90;;;;;;5061561;28;20430;-62
2022/08/28 07:47:07;;;;;;;2.00;1.60;;;25.80;54.90;;;;;;5061018;28;20106;-62
2022/08/28 07:49:33;;;;;;;2.13;1.60;;;25.80;54.90;;;;;;5060901;28;20032;-62
2022/08/28 07:51:59;;;;;;;1.65;1.40;;;25.80;54.90;;;;;;5059780;28;20032;-63
2022/08/28 07:54:25;;;;;;;2.72;2.20;;;25.80;54.90;;;;;;5061016;28;20060;-63
2022/08/28 07:56:51;;;;;;;6.07;4.53;;;25.80;55.20;;;;;;5060999;28;20040;-63
2022/08/28 07:59:19;;;;;;;4.25;3.80;;;25.80;55.60;;;;;;5060755;28;20036;-62
2022/08/28 08:01:47;;;;;;;6.25;4.32;;;25.80;56.00;;;;;;5058797;28;20068;-63
2022/08/28 08:04:14;;;;;;;5.28;4.13;;;25.70;56.10;;;;;;5060012;28;20392;-63
2022/08/28 08:06:41;;;;;;;5.00;4.28;;;25.70;56.30;;;;;;5059748;28;20021;-65
2022/08/28 08:09:11;;;;;;;6.32;4.78;;;25.70;56.30;;;;;;5059778;28;20476;-65
2022/08/28 08:11:37;;;;;;;5.68;3.95;;;25.70;56.40;;;;;;5060583;28;20313;-66
2022/08/28 08:14:04;;;;;;;7.63;5.47;;;25.60;56.50;;;;;;5060894;28;20733;-65
2022/08/28 08:16:33;;;;;;;5.68;4.82;;;25.60;56.70;;;;;;5060212;28;20086;-65
2022/08/28 08:19:00;;;;;;;6.47;5.07;;;25.60;56.70;;;;;;5058898;28;20109;-65
2022/08/28 08:21:26;;;;;;;5.40;4.60;;;25.50;56.70;;;;;;5059223;28;20440;-65
2022/08/28 08:23:52;;;;;;;8.90;5.47;;;25.50;57.00;;;;;;5060215;28;20037;-65
2022/08/28 08:26:20;;;;;;;5.50;4.80;;;25.40;57.00;;;;;;5061351;28;20127;-65
2022/08/28 08:28:47;;;;;;;4.97;4.05;;;25.40;57.30;;;;;;5059114;28;20110;-65
2022/08/28 08:31:18;;;;;;;6.03;4.40;;;25.30;57.50;;;;;;5060326;28;20091;-67
2022/08/28 08:33:49;;;;;;;5.95;4.55;;;25.30;57.60;;;;;;5058715;28;20071;-64
2022/08/28 08:36:17;;;;;;;4.75;3.53;;;25.20;57.50;;;;;;5060615;28;20021;-64
2022/08/28 08:38:44;;;;;;;5.93;3.55;;;25.30;57.60;;;;;;5060073;28;20104;-64
2022/08/28 08:41:29;;;;;;;3.80;3.10;;;25.20;57.70;;;;;;5060490;28;20033;-65
2022/08/28 08:43:59;;;;;;;3.60;2.88;;;25.20;57.80;;;;;;5063501;28;20029;-64
2022/08/28 08:46:35;;;;;;;4.18;2.72;;;25.20;57.80;;;;;;5067110;28;20094;-64
2022/08/28 08:49:09;;;;;;;3.35;3.00;;;25.20;57.80;;;;;;5065871;28;20472;-64
2022/08/28 08:51:40;;;;;;;4.05;3.00;;;25.20;57.70;;;;;;5067639;28;20075;-64
2022/08/28 08:54:12;;;;;;;3.72;2.95;;;25.20;57.60;;;;;;5066696;28;20025;-65
2022/08/28 08:56:40;;;;;;;4.13;2.80;;;25.20;57.50;;;;;;5067308;28;20369;-64
2022/08/28 08:59:14;;;;;;;3.67;2.87;;;25.20;57.50;;;;;;5066110;28;20441;-64
2022/08/28 09:01:54;;;;;;;3.58;2.75;;;25.20;57.40;;;;;;5064534;28;20419;-64
2022/08/28 09:04:45;;;;;;;3.88;2.67;;;25.20;57.30;;;;;;5066589;28;20039;-64
2022/08/28 09:07:26;;;;;;;3.25;2.45;;;25.20;57.30;;;;;;5064682;28;20020;-64
2022/08/28 09:09:54;;;;;;;3.08;2.53;;;25.20;57.20;;;;;;5067642;28;20066;-65
2022/08/28 09:12:24;;;;;;;3.58;2.75;;;25.20;57.20;;;;;;5064472;28;20023;-64
2022/08/28 09:15:08;;;;;;;3.40;2.50;;;25.20;57.10;;;;;;5066983;28;20496;-65
2022/08/28 09:17:51;;;;;;;3.10;2.60;;;25.20;57.10;;;;;;5066363;28;20548;-64
2022/08/28 09:20:29;;;;;;;3.70;2.70;;;25.20;57.10;;;;;;5065715;28;20495;-65
2022/08/28 09:22:55;;;;;;;4.43;2.70;;;25.20;56.90;;;;;;5065930;28;20503;-65
2022/08/28 09:25:47;;;;;;;3.63;2.78;;;25.20;56.90;;;;;;5064978;28;20473;-64
2022/08/28 09:28:26;;;;;;;3.20;2.50;;;25.20;56.90;;;;;;5067474;28;20028;-64
2022/08/28 09:30:55;;;;;;;3.30;2.60;;;25.20;56.90;;;;;;5065119;28;20068;-64
2022/08/28 09:33:32;;;;;;;3.80;2.55;;;25.20;56.80;;;;;;5066700;28;20056;-64
2022/08/28 09:36:28;;;;;;;3.63;2.60;;;25.20;56.80;;;;;;5065453;28;20380;-64
2022/08/28 09:39:04;;;;;;;2.78;2.40;;;25.30;56.80;;;;;;5063773;28;20104;-64
2022/08/28 09:44:14;;;;;;;3.58;2.50;;;25.20;56.60;;;;;;5065286;28;20037;-64
2022/08/28 09:46:47;;;;;;;4.03;2.70;;;25.20;56.60;;;;;;5064744;28;20032;-64
2022/08/28 09:49:14;;;;;;;2.78;2.40;;;25.30;56.60;;;;;;5064788;28;20501;-64
2022/08/28 09:51:40;;;;;;;2.90;2.22;;;25.30;56.60;;;;;;5066098;28;20043;-64
2022/08/28 09:54:30;;;;;;;2.83;2.40;;;25.30;56.60;;;;;;5064972;28;20078;-63
2022/08/28 09:56:56;;;;;;;2.92;2.50;;;25.30;56.60;;;;;;5062152;28;20510;-64
2022/08/28 09:59:24;;;;;;;3.83;2.63;;;25.30;56.50;;;;;;5061404;28;20021;-65
2022/08/28 10:02:16;;;;;;;3.50;2.55;;;25.20;56.40;;;;;;5062938;28;20028;-65
2022/08/28 10:04:59;;;;;;;3.28;2.50;;;25.30;56.60;;;;;;5060412;28;20104;-64
2022/08/28 10:07:41;;;;;;;3.03;2.33;;;25.30;56.40;;;;;;5062352;28;20110;-63
2022/08/28 10:10:35;;;;;;;2.92;2.20;;;25.30;56.40;;;;;;5063316;28;20416;-64
2022/08/28 10:13:15;;;;;;;2.75;2.22;;;25.30;56.40;;;;;;5062143;28;20131;-64
2022/08/28 10:15:56;;;;;;;3.53;2.40;;;25.30;56.40;;;;;;5062338;28;20457;-64
2022/08/28 10:18:34;;;;;;;2.70;2.30;;;25.30;56.30;;;;;;5062899;28;20383;-64
2022/08/28 10:21:09;;;;;;;3.05;2.30;;;25.30;56.30;;;;;;5061380;28;20384;-64
2022/08/28 10:23:49;;;;;;;3.00;2.40;;;25.30;56.30;;;;;;5060230;28;20406;-64
2022/08/28 10:26:35;;;;;;;2.67;2.20;;;25.30;56.30;;;;;;5062060;28;20106;-64
2022/08/28 10:29:21;;;;;;;2.70;2.15;;;25.30;56.20;;;;;;5063661;28;20029;-64
2022/08/28 10:31:53;;;;;;;2.83;2.30;;;25.30;56.20;;;;;;5061805;28;20043;-64
2022/08/28 10:34:21;;;;;;;2.75;2.25;;;25.30;56.20;;;;;;5061703;28;20029;-65
2022/08/28 10:37:01;;;;;;;2.88;2.28;;;25.30;56.20;;;;;;5060587;28;20412;-65
2022/08/28 10:39:49;;;;;;;4.10;2.20;;;25.30;56.20;;;;;;5060722;28;20112;-65
2022/08/28 10:42:25;;;;;;;2.90;2.30;;;25.30;56.10;;;;;;5061386;28;20357;-64
2022/08/28 10:44:59;;;;;;;2.53;2.17;;;25.30;56.10;;;;;;5061557;28;20025;-65
2022/08/28 10:47:27;;;;;;;2.75;2.20;;;25.30;56.10;;;;;;5062004;28;20102;-65
2022/08/28 10:50:00;;;;;;;2.40;2.20;;;25.30;56.00;;;;;;5062441;28;20213;-64
2022/08/28 10:52:33;;;;;;;2.47;2.00;;;25.30;56.00;;;;;;5060965;28;20041;-65
2022/08/28 10:55:15;;;;;;;3.25;2.45;;;25.30;55.90;;;;;;5060162;28;20047;-65
2022/08/28 10:57:46;;;;;;;2.38;2.05;;;25.40;55.90;;;;;;5061458;28;20082;-65
2022/08/28 11:00:16;;;;;;;3.03;2.50;;;25.40;55.80;;;;;;5059716;28;20024;-65
2022/08/28 11:03:00;;;;;;;2.85;2.25;;;25.40;55.80;;;;;;5062579;28;20598;-64
2022/08/28 11:05:38;;;;;;;3.05;2.20;;;25.40;55.80;;;;;;5060629;28;20029;-65
2022/08/28 11:08:08;;;;;;;4.00;2.40;;;25.40;55.70;;;;;;5060397;28;20055;-65
2022/08/28 11:10:33;;;;;;;3.10;2.30;;;25.40;55.70;;;;;;5060434;28;20396;-65
2022/08/28 11:13:01;;;;;;;2.85;2.40;;;25.40;55.70;;;;;;5076469;28;20048;-65
2022/08/28 11:15:26;;;;;;;2.70;2.15;;;25.40;55.70;;;;;;5061669;28;20064;-65
2022/08/28 11:18:17;;;;;;;2.80;2.38;;;25.40;55.70;;;;;;5060585;28;20064;-65
2022/08/28 11:21:18;;;;;;;3.22;2.60;;;25.40;55.90;;;;;;5060417;28;20036;-64
2022/08/28 11:24:10;;;;;;;3.67;2.65;;;25.40;56.10;;;;;;5055851;28;20068;-65
2022/08/28 11:26:50;;;;;;;3.75;2.85;;;25.40;56.20;;;;;;5054699;28;20110;-65
2022/08/28 11:29:54;;;;;;;4.43;3.00;;;25.50;56.30;;;;;;5061922;28;20158;-65
2022/08/28 11:32:53;;;;;;;4.00;2.90;;;25.50;56.60;;;;;;5060354;28;20036;-65
2022/08/28 11:35:28;;;;;;;3.85;2.83;;;25.50;56.60;;;;;;5061116;28;20020;-65
2022/08/28 11:37:55;;;;;;;4.25;2.95;;;25.50;56.70;;;;;;5060023;28;20047;-65
2022/08/28 11:40:27;;;;;;;3.92;3.08;;;25.50;56.70;;;;;;5060384;28;20033;-66
2022/08/28 11:43:15;;;;;;;4.05;2.83;;;25.50;56.80;;;;;;5061152;28;20070;-65
2022/08/28 11:45:49;;;;;;;4.93;3.25;;;25.50;56.90;;;;;;5061264;28;20033;-66
2022/08/28 11:48:36;;;;;;;4.47;2.85;;;25.50;56.80;;;;;;5062407;28;20047;-65
2022/08/28 11:51:15;;;;;;;4.43;3.25;;;25.50;57.50;;;;;;5062272;28;20484;-66
2022/08/28 11:53:59;;;;;;;4.38;3.15;;;25.50;56.90;;;;;;5060350;28;20036;-65
2022/08/28 11:56:48;;;;;;;4.15;3.10;;;25.50;57.00;;;;;;5061287;28;20115;-66
2022/08/28 11:59:13;;;;;;;3.78;3.00;;;25.50;56.90;;;;;;5061838;28;20396;-65
2022/08/28 12:01:39;;;;;;;4.20;3.03;;;25.50;56.80;;;;;;5058302;28;20031;-66
2022/08/28 12:04:16;;;;;;;4.35;3.20;;;25.50;56.80;;;;;;5062220;28;20069;-65
2022/08/28 12:06:50;;;;;;;5.63;3.17;;;25.50;56.80;;;;;;5061636;28;20021;-65
2022/08/28 12:09:25;;;;;;;3.78;2.80;;;25.50;56.70;;;;;;5060645;28;20028;-66
2022/08/28 12:11:57;;;;;;;4.88;2.95;;;25.60;56.90;;;;;;5061227;28;20095;-64
2022/08/28 12:14:29;;;;;;;4.20;2.85;;;25.60;56.80;;;;;;5060914;28;20056;-65
2022/08/28 12:17:00;;;;;;;4.32;2.80;;;25.60;56.80;;;;;;5062043;28;20107;-66
2022/08/28 12:19:39;;;;;;;3.67;2.80;;;25.60;56.80;;;;;;5059429;28;20059;-65
2022/08/28 12:22:17;;;;;;;5.00;3.20;;;25.60;56.70;;;;;;5061190;28;20021;-65
2022/08/28 12:24:59;;;;;;;4.30;3.10;;;25.60;56.70;;;;;;5060942;28;20114;-65
2022/08/28 12:27:26;;;;;;;4.57;3.00;;;25.60;57.20;;;;;;5060584;28;20484;-65
2022/08/28 12:29:57;;;;;;;4.00;2.90;;;25.70;56.70;;;;;;5062415;28;20033;-66
2022/08/28 12:32:23;;;;;;;4.55;2.70;;;25.60;56.60;;;;;;5059134;28;20446;-66
2022/08/28 12:34:58;;;;;;;3.58;2.90;;;25.60;56.50;;;;;;5059732;28;20071;-64
2022/08/28 12:37:29;;;;;;;3.97;2.90;;;25.70;56.30;;;;;;5058782;28;20040;-66
2022/08/28 12:40:00;;;;;;;4.30;3.33;;;25.70;56.20;;;;;;5061348;28;20045;-66
2022/08/28 12:42:31;;;;;;;3.88;2.80;;;25.60;56.10;;;;;;5057462;28;20025;-66
2022/08/28 12:45:04;;;;;;;3.75;2.70;;;25.60;56.20;;;;;;5060560;28;20392;-66
2022/08/28 12:47:30;;;;;;;4.00;2.83;;;25.70;56.10;;;;;;5058807;28;20032;-66
2022/08/28 12:49:56;;;;;;;4.75;2.80;;;25.60;56.00;;;;;;5060772;28;20151;-66
2022/08/28 12:52:24;;;;;;;3.67;2.33;;;25.60;56.00;;;;;;5060831;28;20108;-67
2022/08/28 12:54:54;;;;;;;3.70;2.60;;;25.60;56.00;;;;;;5059943;28;20029;-66
2022/08/28 12:57:21;;;;;;;3.33;2.40;;;25.60;56.00;;;;;;5061079;28;20120;-67
2022/08/28 12:59:51;;;;;;;4.07;2.78;;;25.60;56.10;;;;;;5059877;28;20033;-68
2022/08/28 13:02:16;;;;;;;4.75;3.13;;;25.70;56.10;;;;;;5060151;28;20028;-66
2022/08/28 13:04:52;;;;;;;3.08;2.30;;;25.70;56.00;;;;;;5059257;28;20361;-66
2022/08/28 13:07:28;;;;;;;2.92;2.40;;;25.70;55.90;;;;;;5061254;28;20051;-66
2022/08/28 13:09:55;;;;;;;3.25;2.40;;;25.70;56.10;;;;;;5062606;28;20114;-66